FDB43F OMDB-OPKC
Flight info
| Callsign | FDB43F |
|---|---|
| Flight time | 1h 52m |
| Altitude | 35000 |
| Route | ANVIX7F ANVIX L223 TARDI N629 GEPOT G652 SODEB G216 LAKIV LAKIV1C |
| Aircraft | B738/M-SDFGHIRWX/LB1 |
Departure
| Time | 2026-04-21 17:42 |
|---|---|
| Airport | Dubai International Airport (OMDB) |
Arrival
| Time | 2026-04-21 19:35 |
|---|---|
| Airport | Jinnah International Airport (OPKC) |
| Time | Latitude | Longitude | Altitude | Speed | Heading |
|---|---|---|---|---|---|
| 2026-04-21 17:14 | 25.26694 | 55.34270 | 42 ft | 0 kts | 32° |
| 2026-04-21 17:22 | 25.26689 | 55.34267 | 42 ft | 2 kts | 32° |
| 2026-04-21 17:22 | 25.26670 | 55.34254 | 42 ft | 3 kts | 32° |
| 2026-04-21 17:22 | 25.26653 | 55.34242 | 42 ft | 3 kts | 32° |
| 2026-04-21 17:22 | 25.26643 | 55.34233 | 42 ft | 3 kts | 53° |
| 2026-04-21 17:23 | 25.26636 | 55.34212 | 42 ft | 3 kts | 90° |
| 2026-04-21 17:23 | 25.26642 | 55.34190 | 42 ft | 0 kts | 121° |
| 2026-04-21 17:27 | 25.26642 | 55.34191 | 42 ft | 0 kts | 121° |
| 2026-04-21 17:27 | 25.26641 | 55.34193 | 42 ft | 1 kts | 121° |
| 2026-04-21 17:27 | 25.26634 | 55.34205 | 42 ft | 3 kts | 121° |
| 2026-04-21 17:28 | 25.26620 | 55.34233 | 42 ft | 5 kts | 118° |
| 2026-04-21 17:28 | 25.26597 | 55.34277 | 42 ft | 8 kts | 120° |
| 2026-04-21 17:28 | 25.26565 | 55.34336 | 42 ft | 10 kts | 120° |
| 2026-04-21 17:28 | 25.26526 | 55.34406 | 42 ft | 12 kts | 122° |
| 2026-04-21 17:29 | 25.26480 | 55.34486 | 42 ft | 13 kts | 122° |
| 2026-04-21 17:29 | 25.26404 | 55.34534 | 42 ft | 13 kts | 136° |
| 2026-04-21 17:29 | 25.26352 | 55.34623 | 42 ft | 15 kts | 120° |
| 2026-04-21 17:29 | 25.26299 | 55.34726 | 42 ft | 16 kts | 120° |
| 2026-04-21 17:30 | 25.26278 | 55.34831 | 42 ft | 13 kts | 36° |
| 2026-04-21 17:30 | 25.26359 | 55.34870 | 42 ft | 13 kts | 69° |
| 2026-04-21 17:30 | 25.26320 | 55.34939 | 42 ft | 11 kts | 123° |
| 2026-04-21 17:30 | 25.26275 | 55.35018 | 42 ft | 13 kts | 120° |
| 2026-04-21 17:31 | 25.26224 | 55.35109 | 42 ft | 15 kts | 122° |
| 2026-04-21 17:31 | 25.26169 | 55.35207 | 42 ft | 16 kts | 122° |
| 2026-04-21 17:31 | 25.26108 | 55.35315 | 42 ft | 17 kts | 122° |
| 2026-04-21 17:31 | 25.26043 | 55.35430 | 42 ft | 18 kts | 122° |
| 2026-04-21 17:32 | 25.25974 | 55.35551 | 42 ft | 19 kts | 119° |
| 2026-04-21 17:32 | 25.25906 | 55.35679 | 42 ft | 20 kts | 122° |
| 2026-04-21 17:32 | 25.25833 | 55.35810 | 42 ft | 20 kts | 121° |
| 2026-04-21 17:32 | 25.25762 | 55.35938 | 42 ft | 19 kts | 122° |
| 2026-04-21 17:33 | 25.25694 | 55.36059 | 42 ft | 18 kts | 121° |
| 2026-04-21 17:33 | 25.25631 | 55.36175 | 42 ft | 17 kts | 122° |
| 2026-04-21 17:33 | 25.25570 | 55.36284 | 42 ft | 16 kts | 122° |
| 2026-04-21 17:33 | 25.25512 | 55.36388 | 42 ft | 16 kts | 121° |
| 2026-04-21 17:34 | 25.25457 | 55.36488 | 42 ft | 15 kts | 121° |
| 2026-04-21 17:34 | 25.25403 | 55.36583 | 42 ft | 14 kts | 121° |
| 2026-04-21 17:34 | 25.25352 | 55.36676 | 42 ft | 14 kts | 121° |
| 2026-04-21 17:34 | 25.25304 | 55.36765 | 42 ft | 13 kts | 120° |
| 2026-04-21 17:35 | 25.25258 | 55.36851 | 42 ft | 13 kts | 120° |
| 2026-04-21 17:35 | 25.25210 | 55.36935 | 42 ft | 13 kts | 123° |
| 2026-04-21 17:35 | 25.25161 | 55.37022 | 42 ft | 14 kts | 121° |
| 2026-04-21 17:35 | 25.25111 | 55.37112 | 42 ft | 14 kts | 121° |
| 2026-04-21 17:36 | 25.25059 | 55.37206 | 42 ft | 15 kts | 121° |
| 2026-04-21 17:36 | 25.25007 | 55.37305 | 42 ft | 15 kts | 120° |
| 2026-04-21 17:36 | 25.24950 | 55.37405 | 42 ft | 15 kts | 122° |
| 2026-04-21 17:36 | 25.24893 | 55.37507 | 42 ft | 16 kts | 120° |
| 2026-04-21 17:37 | 25.24839 | 55.37607 | 42 ft | 15 kts | 121° |
| 2026-04-21 17:37 | 25.24789 | 55.37697 | 42 ft | 13 kts | 121° |
| 2026-04-21 17:37 | 25.24744 | 55.37778 | 42 ft | 12 kts | 121° |
| 2026-04-21 17:37 | 25.24704 | 55.37849 | 42 ft | 10 kts | 121° |
| 2026-04-21 17:38 | 25.24669 | 55.37912 | 42 ft | 9 kts | 121° |
| 2026-04-21 17:38 | 25.24639 | 55.37966 | 42 ft | 8 kts | 121° |
| 2026-04-21 17:38 | 25.24625 | 55.38016 | 42 ft | 7 kts | 85° |
| 2026-04-21 17:38 | 25.24646 | 55.38063 | 42 ft | 7 kts | 43° |
| 2026-04-21 17:39 | 25.24688 | 55.38080 | 42 ft | 7 kts | 22° |
| 2026-04-21 17:39 | 25.24727 | 55.38077 | 42 ft | 5 kts | 336° |
| 2026-04-21 17:39 | 25.24749 | 55.38066 | 42 ft | 2 kts | 342° |
| 2026-04-21 17:39 | 25.24761 | 55.38065 | 42 ft | 2 kts | 7° |
| 2026-04-21 17:40 | 25.24776 | 55.38072 | 42 ft | 3 kts | 25° |
| 2026-04-21 17:40 | 25.24798 | 55.38060 | 42 ft | 3 kts | 289° |
| 2026-04-21 17:40 | 25.24799 | 55.38055 | 42 ft | 0 kts | 281° |
| 2026-04-21 17:40 | 25.24806 | 55.38034 | 42 ft | 6 kts | 295° |
| 2026-04-21 17:41 | 25.24814 | 55.38018 | 42 ft | 0 kts | 301° |
| 2026-04-21 17:41 | 25.24832 | 55.37985 | 42 ft | 13 kts | 301° |
| 2026-04-21 17:41 | 25.24962 | 55.37749 | 42 ft | 66 kts | 301° |
| 2026-04-21 17:42 | 25.25311 | 55.37116 | 42 ft | 125 kts | 302° |
| 2026-04-21 17:42 | 25.25862 | 55.36135 | 51 ft | 173 kts | 300° |
| 2026-04-21 17:42 | 25.26490 | 55.35002 | 749 ft | 170 kts | 301° |
| 2026-04-21 17:42 | 25.27116 | 55.33882 | 1415 ft | 175 kts | 300° |
| 2026-04-21 17:43 | 25.27758 | 55.32724 | 2055 ft | 177 kts | 302° |
| 2026-04-21 17:43 | 25.28405 | 55.31553 | 2681 ft | 180 kts | 302° |
| 2026-04-21 17:43 | 25.28992 | 55.30315 | 3287 ft | 185 kts | 289° |
| 2026-04-21 17:43 | 25.29046 | 55.28859 | 3804 ft | 196 kts | 266° |
| 2026-04-21 17:44 | 25.28702 | 55.27363 | 4012 ft | 206 kts | 253° |
| 2026-04-21 17:44 | 25.28126 | 55.25906 | 4033 ft | 208 kts | 248° |
| 2026-04-21 17:44 | 25.27500 | 55.24484 | 4021 ft | 207 kts | 246° |
| 2026-04-21 17:44 | 25.26866 | 55.23064 | 4010 ft | 205 kts | 246° |
| 2026-04-21 17:45 | 25.26230 | 55.21638 | 4010 ft | 210 kts | 247° |
| 2026-04-21 17:45 | 25.25587 | 55.20135 | 4039 ft | 225 kts | 248° |
| 2026-04-21 17:45 | 25.24896 | 55.18530 | 3998 ft | 235 kts | 245° |
| 2026-04-21 17:45 | 25.23760 | 55.17190 | 4152 ft | 250 kts | 216° |
| 2026-04-21 17:46 | 25.22092 | 55.16502 | 4725 ft | 260 kts | 193° |
| 2026-04-21 17:46 | 25.20274 | 55.16411 | 5482 ft | 265 kts | 174° |
| 2026-04-21 17:46 | 25.18546 | 55.17103 | 6103 ft | 274 kts | 149° |
| 2026-04-21 17:46 | 25.17115 | 55.18573 | 6427 ft | 293 kts | 124° |
| 2026-04-21 17:47 | 25.16290 | 55.20629 | 7050 ft | 295 kts | 103° |
| 2026-04-21 17:47 | 25.15748 | 55.22838 | 7774 ft | 299 kts | 107° |
| 2026-04-21 17:47 | 25.14918 | 55.24962 | 8467 ft | 303 kts | 115° |
| 2026-04-21 17:47 | 25.13856 | 55.27005 | 8871 ft | 308 kts | 120° |
| 2026-04-21 17:48 | 25.13145 | 55.28363 | 8983 ft | 309 kts | 118° |
| 2026-04-21 17:48 | 25.11771 | 55.31140 | 8996 ft | 307 kts | 116° |
| 2026-04-21 17:48 | 25.10754 | 55.33217 | 8999 ft | 308 kts | 118° |
| 2026-04-21 17:48 | 25.09813 | 55.35320 | 9000 ft | 309 kts | 114° |
| 2026-04-21 17:49 | 25.08954 | 55.37491 | 9000 ft | 308 kts | 112° |
| 2026-04-21 17:49 | 25.08089 | 55.39648 | 9000 ft | 306 kts | 112° |
| 2026-04-21 17:49 | 25.07227 | 55.41799 | 9142 ft | 308 kts | 111° |
| 2026-04-21 17:49 | 25.06387 | 55.43977 | 9969 ft | 304 kts | 110° |
| 2026-04-21 17:50 | 25.05561 | 55.46126 | 10529 ft | 315 kts | 112° |
| 2026-04-21 17:50 | 25.04676 | 55.48426 | 10790 ft | 334 kts | 112° |
| 2026-04-21 17:50 | 25.03740 | 55.50852 | 11034 ft | 352 kts | 112° |
| 2026-04-21 17:50 | 25.02756 | 55.53400 | 11316 ft | 367 kts | 112° |
| 2026-04-21 17:51 | 25.01692 | 55.55976 | 11935 ft | 370 kts | 118° |
| 2026-04-21 17:51 | 25.00419 | 55.58458 | 12616 ft | 372 kts | 122° |
| 2026-04-21 17:51 | 24.99058 | 55.60903 | 13244 ft | 376 kts | 122° |
| 2026-04-21 17:51 | 24.97692 | 55.63382 | 13865 ft | 380 kts | 122° |
| 2026-04-21 17:52 | 24.96343 | 55.65856 | 14472 ft | 383 kts | 121° |
| 2026-04-21 17:52 | 24.94961 | 55.68402 | 15076 ft | 388 kts | 121° |
| 2026-04-21 17:52 | 24.93533 | 55.70952 | 15643 ft | 393 kts | 124° |
| 2026-04-21 17:52 | 24.91943 | 55.73428 | 16202 ft | 398 kts | 127° |
| 2026-04-21 17:53 | 24.90268 | 55.75869 | 16751 ft | 402 kts | 127° |
| 2026-04-21 17:53 | 24.88577 | 55.78352 | 17292 ft | 406 kts | 126° |
| 2026-04-21 17:53 | 24.86896 | 55.80859 | 17930 ft | 407 kts | 126° |
| 2026-04-21 17:53 | 24.85226 | 55.83364 | 18361 ft | 413 kts | 125° |
| 2026-04-21 17:54 | 24.83511 | 55.85927 | 18873 ft | 417 kts | 126° |
| 2026-04-21 17:54 | 24.81777 | 55.88492 | 19525 ft | 414 kts | 130° |
| 2026-04-21 17:54 | 24.80055 | 55.91029 | 20211 ft | 414 kts | 130° |
| 2026-04-21 17:54 | 24.78262 | 55.93539 | 20563 ft | 418 kts | 134° |
| 2026-04-21 17:55 | 24.76262 | 55.95845 | 21139 ft | 416 kts | 139° |
| 2026-04-21 17:55 | 24.74151 | 55.97996 | 21544 ft | 419 kts | 141° |
| 2026-04-21 17:55 | 24.71993 | 56.00185 | 21964 ft | 423 kts | 141° |
| 2026-04-21 17:55 | 24.69832 | 56.02391 | 22391 ft | 426 kts | 140° |
| 2026-04-21 17:56 | 24.67650 | 56.04634 | 22805 ft | 429 kts | 140° |
| 2026-04-21 17:56 | 24.65462 | 56.06888 | 23198 ft | 432 kts | 141° |
| 2026-04-21 17:56 | 24.63258 | 56.09155 | 23589 ft | 435 kts | 141° |
| 2026-04-21 17:56 | 24.61040 | 56.11437 | 23971 ft | 438 kts | 141° |
| 2026-04-21 17:57 | 24.58834 | 56.13702 | 24371 ft | 440 kts | 141° |
| 2026-04-21 17:57 | 24.56593 | 56.16085 | 24697 ft | 445 kts | 138° |
| 2026-04-21 17:57 | 24.54519 | 56.18582 | 25019 ft | 450 kts | 135° |
| 2026-04-21 17:57 | 24.52450 | 56.21242 | 25384 ft | 453 kts | 134° |
| 2026-04-21 17:58 | 24.50438 | 56.23873 | 25736 ft | 455 kts | 134° |
| 2026-04-21 17:58 | 24.48390 | 56.26538 | 26064 ft | 458 kts | 134° |
| 2026-04-21 17:58 | 24.46317 | 56.29209 | 26392 ft | 460 kts | 134° |
| 2026-04-21 17:58 | 24.44228 | 56.31884 | 26721 ft | 462 kts | 134° |
| 2026-04-21 17:59 | 24.42126 | 56.34563 | 27045 ft | 464 kts | 134° |
| 2026-04-21 17:59 | 24.40010 | 56.37256 | 27359 ft | 466 kts | 134° |
| 2026-04-21 17:59 | 24.37882 | 56.39957 | 27657 ft | 469 kts | 134° |
| 2026-04-21 17:59 | 24.35741 | 56.42673 | 27959 ft | 471 kts | 134° |
| 2026-04-21 18:00 | 24.33592 | 56.45398 | 28253 ft | 473 kts | 134° |
| 2026-04-21 18:00 | 24.31459 | 56.48099 | 28539 ft | 475 kts | 134° |
| 2026-04-21 18:00 | 24.29314 | 56.50866 | 28803 ft | 478 kts | 131° |
| 2026-04-21 18:00 | 24.27288 | 56.53773 | 29073 ft | 480 kts | 128° |
| 2026-04-21 18:01 | 24.25330 | 56.56768 | 29342 ft | 483 kts | 127° |
| 2026-04-21 18:01 | 24.23401 | 56.59745 | 29622 ft | 484 kts | 128° |
| 2026-04-21 18:01 | 24.21445 | 56.62756 | 29977 ft | 483 kts | 128° |
| 2026-04-21 18:01 | 24.19483 | 56.65746 | 30347 ft | 482 kts | 128° |
| 2026-04-21 18:02 | 24.18175 | 56.67727 | 30592 ft | 481 kts | 128° |
| 2026-04-21 18:02 | 24.15573 | 56.71654 | 31077 ft | 480 kts | 128° |
| 2026-04-21 18:02 | 24.13610 | 56.74606 | 31433 ft | 479 kts | 128° |
| 2026-04-21 18:02 | 24.11643 | 56.77559 | 31759 ft | 479 kts | 128° |
| 2026-04-21 18:03 | 24.09674 | 56.80512 | 32027 ft | 480 kts | 128° |
| 2026-04-21 18:03 | 24.07697 | 56.83475 | 32304 ft | 481 kts | 128° |
| 2026-04-21 18:03 | 24.05721 | 56.86433 | 32577 ft | 482 kts | 128° |
| 2026-04-21 18:03 | 24.03762 | 56.89369 | 32845 ft | 483 kts | 128° |
| 2026-04-21 18:04 | 24.01783 | 56.92334 | 33111 ft | 484 kts | 128° |
| 2026-04-21 18:04 | 23.99785 | 56.95321 | 33372 ft | 485 kts | 128° |
| 2026-04-21 18:04 | 23.97788 | 56.98301 | 33630 ft | 486 kts | 128° |
| 2026-04-21 18:04 | 23.95781 | 57.01295 | 33885 ft | 487 kts | 128° |
| 2026-04-21 18:05 | 23.93796 | 57.04254 | 34135 ft | 488 kts | 128° |
| 2026-04-21 18:05 | 23.91785 | 57.07248 | 34380 ft | 489 kts | 128° |
| 2026-04-21 18:05 | 23.89757 | 57.10270 | 34631 ft | 490 kts | 128° |
| 2026-04-21 18:05 | 23.87770 | 57.13237 | 34867 ft | 491 kts | 128° |
| 2026-04-21 18:06 | 23.83712 | 57.19282 | 34962 ft | 494 kts | 128° |
| 2026-04-21 18:06 | 23.79647 | 57.25319 | 34956 ft | 490 kts | 128° |
| 2026-04-21 18:07 | 23.75603 | 57.31318 | 34957 ft | 490 kts | 128° |
| 2026-04-21 18:07 | 23.71581 | 57.37263 | 34935 ft | 489 kts | 128° |
| 2026-04-21 18:08 | 23.67379 | 57.43056 | 34881 ft | 483 kts | 129° |
| 2026-04-21 18:08 | 23.63193 | 57.48786 | 34858 ft | 483 kts | 129° |
| 2026-04-21 18:09 | 23.59704 | 57.53566 | 34849 ft | 483 kts | 129° |
| 2026-04-21 18:09 | 23.54844 | 57.60223 | 34846 ft | 483 kts | 129° |
| 2026-04-21 18:10 | 23.51337 | 57.65025 | 34846 ft | 483 kts | 129° |
| 2026-04-21 18:10 | 23.47171 | 57.70724 | 34846 ft | 483 kts | 129° |
| 2026-04-21 18:11 | 23.42985 | 57.76449 | 34847 ft | 483 kts | 129° |
| 2026-04-21 18:11 | 23.38792 | 57.82179 | 34846 ft | 483 kts | 129° |
| 2026-04-21 18:12 | 23.34617 | 57.87866 | 34846 ft | 483 kts | 129° |
| 2026-04-21 18:12 | 23.30417 | 57.93579 | 34846 ft | 483 kts | 129° |
| 2026-04-21 18:13 | 23.26918 | 57.99747 | 34840 ft | 482 kts | 107° |
| 2026-04-21 18:13 | 23.26249 | 58.03305 | 34845 ft | 479 kts | 91° |
| 2026-04-21 18:13 | 23.26411 | 58.06889 | 34846 ft | 474 kts | 76° |
| 2026-04-21 18:14 | 23.28723 | 58.13507 | 34852 ft | 467 kts | 60° |
| 2026-04-21 18:14 | 23.30099 | 58.16661 | 34848 ft | 467 kts | 61° |
| 2026-04-21 18:15 | 23.32851 | 58.23062 | 34846 ft | 467 kts | 63° |
| 2026-04-21 18:15 | 23.35374 | 58.29595 | 34846 ft | 468 kts | 64° |
| 2026-04-21 18:16 | 23.37860 | 58.36108 | 34846 ft | 468 kts | 64° |
| 2026-04-21 18:16 | 23.40355 | 58.42669 | 34846 ft | 468 kts | 64° |
| 2026-04-21 18:17 | 23.42790 | 58.49246 | 34846 ft | 468 kts | 65° |
| 2026-04-21 18:17 | 23.45195 | 58.55807 | 34846 ft | 468 kts | 65° |
| 2026-04-21 18:18 | 23.47607 | 58.62401 | 34846 ft | 468 kts | 65° |
| 2026-04-21 18:18 | 23.50018 | 58.69002 | 34846 ft | 468 kts | 65° |
| 2026-04-21 18:19 | 23.52415 | 58.75575 | 34846 ft | 468 kts | 65° |
| 2026-04-21 18:19 | 23.54833 | 58.82177 | 34846 ft | 468 kts | 64° |
| 2026-04-21 18:20 | 23.57252 | 58.88781 | 34846 ft | 468 kts | 65° |
| 2026-04-21 18:20 | 23.59646 | 58.95344 | 34846 ft | 468 kts | 65° |
| 2026-04-21 18:21 | 23.62049 | 59.01946 | 34846 ft | 468 kts | 65° |
| 2026-04-21 18:21 | 23.64448 | 59.08551 | 34846 ft | 468 kts | 65° |
| 2026-04-21 18:22 | 23.66853 | 59.15185 | 34846 ft | 469 kts | 65° |
| 2026-04-21 18:22 | 23.69244 | 59.21763 | 34846 ft | 468 kts | 64° |
| 2026-04-21 18:23 | 23.71646 | 59.28397 | 34837 ft | 469 kts | 65° |
| 2026-04-21 18:23 | 23.74017 | 59.34980 | 34825 ft | 469 kts | 65° |
| 2026-04-21 18:24 | 23.76401 | 59.41617 | 34822 ft | 469 kts | 65° |
| 2026-04-21 18:24 | 23.78772 | 59.48256 | 34821 ft | 469 kts | 66° |
| 2026-04-21 18:25 | 23.80441 | 59.55190 | 34822 ft | 474 kts | 76° |
| 2026-04-21 18:25 | 23.81531 | 59.62267 | 34822 ft | 475 kts | 77° |
| 2026-04-21 18:26 | 23.82640 | 59.69388 | 34823 ft | 474 kts | 77° |
| 2026-04-21 18:26 | 23.83760 | 59.76498 | 34822 ft | 474 kts | 77° |
| 2026-04-21 18:27 | 23.84877 | 59.83572 | 34821 ft | 475 kts | 77° |
| 2026-04-21 18:27 | 23.85996 | 59.90688 | 34821 ft | 474 kts | 77° |
| 2026-04-21 18:28 | 23.87110 | 59.97802 | 34825 ft | 475 kts | 77° |
| 2026-04-21 18:28 | 23.88222 | 60.04932 | 34836 ft | 477 kts | 77° |
| 2026-04-21 18:29 | 23.89327 | 60.12047 | 34843 ft | 477 kts | 77° |
| 2026-04-21 18:29 | 23.90445 | 60.19198 | 34847 ft | 477 kts | 77° |
| 2026-04-21 18:30 | 23.91571 | 60.26357 | 34849 ft | 477 kts | 77° |
| 2026-04-21 18:30 | 23.92682 | 60.33484 | 34850 ft | 478 kts | 77° |
| 2026-04-21 18:31 | 23.93791 | 60.40640 | 34853 ft | 478 kts | 77° |
| 2026-04-21 18:31 | 23.94899 | 60.47815 | 34853 ft | 478 kts | 77° |
| 2026-04-21 18:32 | 23.95995 | 60.54948 | 34851 ft | 478 kts | 77° |
| 2026-04-21 18:32 | 23.97093 | 60.62119 | 34852 ft | 478 kts | 77° |
| 2026-04-21 18:33 | 23.98181 | 60.69249 | 34867 ft | 475 kts | 77° |
| 2026-04-21 18:33 | 23.99257 | 60.76321 | 34883 ft | 466 kts | 77° |
| 2026-04-21 18:34 | 24.00318 | 60.83313 | 34897 ft | 465 kts | 77° |
| 2026-04-21 18:34 | 24.01367 | 60.90252 | 34905 ft | 465 kts | 77° |
| 2026-04-21 18:35 | 24.02243 | 60.96066 | 34905 ft | 464 kts | 77° |
| 2026-04-21 18:35 | 24.03475 | 61.04178 | 34905 ft | 464 kts | 77° |
| 2026-04-21 18:36 | 24.04523 | 61.11166 | 34905 ft | 464 kts | 77° |
| 2026-04-21 18:36 | 24.05553 | 61.18093 | 34905 ft | 463 kts | 77° |
| 2026-04-21 18:37 | 24.06580 | 61.25039 | 34905 ft | 463 kts | 77° |
| 2026-04-21 18:37 | 24.07610 | 61.32002 | 34905 ft | 462 kts | 77° |
| 2026-04-21 18:38 | 24.08634 | 61.38967 | 34906 ft | 461 kts | 78° |
| 2026-04-21 18:38 | 24.09644 | 61.45826 | 34905 ft | 457 kts | 77° |
| 2026-04-21 18:39 | 24.10666 | 61.52715 | 34905 ft | 457 kts | 78° |
| 2026-04-21 18:39 | 24.11669 | 61.59593 | 34905 ft | 457 kts | 78° |
| 2026-04-21 18:40 | 24.12659 | 61.66431 | 34905 ft | 457 kts | 78° |
| 2026-04-21 18:40 | 24.13484 | 61.72145 | 34905 ft | 457 kts | 78° |
| 2026-04-21 18:41 | 24.14649 | 61.80185 | 34905 ft | 456 kts | 78° |
| 2026-04-21 18:41 | 24.15588 | 61.87020 | 34905 ft | 456 kts | 79° |
| 2026-04-21 18:42 | 24.16504 | 61.93869 | 34905 ft | 453 kts | 79° |
| 2026-04-21 18:42 | 24.17417 | 62.00696 | 34905 ft | 452 kts | 79° |
| 2026-04-21 18:43 | 24.18322 | 62.07480 | 34905 ft | 452 kts | 79° |
| 2026-04-21 18:43 | 24.19229 | 62.14300 | 34905 ft | 453 kts | 79° |
| 2026-04-21 18:44 | 24.20151 | 62.21125 | 34905 ft | 452 kts | 79° |
| 2026-04-21 18:44 | 24.21072 | 62.27938 | 34905 ft | 453 kts | 79° |
| 2026-04-21 18:45 | 24.21987 | 62.34768 | 34905 ft | 453 kts | 79° |
| 2026-04-21 18:45 | 24.22893 | 62.41568 | 34905 ft | 453 kts | 79° |
| 2026-04-21 18:46 | 24.23802 | 62.48426 | 34905 ft | 453 kts | 79° |
| 2026-04-21 18:46 | 24.24698 | 62.55213 | 34905 ft | 453 kts | 79° |
| 2026-04-21 18:47 | 24.25597 | 62.62055 | 34905 ft | 452 kts | 79° |
| 2026-04-21 18:47 | 24.26489 | 62.68865 | 34905 ft | 453 kts | 79° |
| 2026-04-21 18:48 | 24.27381 | 62.75701 | 34905 ft | 454 kts | 79° |
| 2026-04-21 18:48 | 24.28272 | 62.82561 | 34905 ft | 458 kts | 80° |
| 2026-04-21 18:49 | 24.29168 | 62.89481 | 34905 ft | 458 kts | 80° |
| 2026-04-21 18:49 | 24.29909 | 62.95225 | 34905 ft | 457 kts | 80° |
| 2026-04-21 18:50 | 24.30948 | 63.03308 | 34905 ft | 458 kts | 80° |
| 2026-04-21 18:50 | 24.31834 | 63.10227 | 34905 ft | 458 kts | 80° |
| 2026-04-21 18:51 | 24.32713 | 63.17112 | 34905 ft | 458 kts | 80° |
| 2026-04-21 18:51 | 24.33593 | 63.24040 | 34905 ft | 458 kts | 80° |
| 2026-04-21 18:52 | 24.34468 | 63.30943 | 34905 ft | 458 kts | 80° |
| 2026-04-21 18:52 | 24.35345 | 63.37897 | 34905 ft | 460 kts | 81° |
| 2026-04-21 18:53 | 24.36218 | 63.44844 | 34905 ft | 459 kts | 81° |
| 2026-04-21 18:53 | 24.37084 | 63.51755 | 34905 ft | 459 kts | 81° |
| 2026-04-21 18:54 | 24.37951 | 63.58711 | 34905 ft | 459 kts | 81° |
| 2026-04-21 18:54 | 24.38809 | 63.65610 | 34905 ft | 459 kts | 81° |
| 2026-04-21 18:55 | 24.39526 | 63.71403 | 34905 ft | 459 kts | 81° |
| 2026-04-21 18:55 | 24.40523 | 63.79486 | 34905 ft | 459 kts | 81° |
| 2026-04-21 18:56 | 24.41235 | 63.85273 | 34905 ft | 459 kts | 81° |
| 2026-04-21 18:56 | 24.42086 | 63.92223 | 34905 ft | 459 kts | 81° |
| 2026-04-21 18:57 | 24.42936 | 63.99192 | 34905 ft | 459 kts | 81° |
| 2026-04-21 18:57 | 24.43775 | 64.06101 | 34905 ft | 459 kts | 81° |
| 2026-04-21 18:58 | 24.44618 | 64.13063 | 34905 ft | 459 kts | 81° |
| 2026-04-21 18:58 | 24.45451 | 64.19973 | 34905 ft | 459 kts | 81° |
| 2026-04-21 18:59 | 24.46288 | 64.26936 | 34905 ft | 459 kts | 81° |
| 2026-04-21 18:59 | 24.47119 | 64.33887 | 34905 ft | 459 kts | 81° |
| 2026-04-21 19:00 | 24.47943 | 64.40804 | 34905 ft | 459 kts | 81° |
| 2026-04-21 19:00 | 24.48769 | 64.47754 | 34905 ft | 459 kts | 81° |
| 2026-04-21 19:01 | 24.49604 | 64.54701 | 34905 ft | 459 kts | 81° |
| 2026-04-21 19:01 | 24.50419 | 64.61615 | 34905 ft | 459 kts | 81° |
| 2026-04-21 19:02 | 24.51162 | 64.67988 | 34906 ft | 459 kts | 81° |
| 2026-04-21 19:02 | 24.51970 | 64.74950 | 34905 ft | 456 kts | 81° |
| 2026-04-21 19:03 | 24.52760 | 64.81772 | 34905 ft | 451 kts | 81° |
| 2026-04-21 19:03 | 24.53393 | 64.88629 | 34736 ft | 450 kts | 84° |
| 2026-04-21 19:03 | 24.53647 | 64.92047 | 34455 ft | 443 kts | 84° |
| 2026-04-21 19:04 | 24.53895 | 64.95367 | 34055 ft | 439 kts | 84° |
| 2026-04-21 19:04 | 24.54147 | 64.98706 | 33655 ft | 436 kts | 84° |
| 2026-04-21 19:04 | 24.54396 | 65.02012 | 33256 ft | 433 kts | 84° |
| 2026-04-21 19:04 | 24.54645 | 65.05299 | 32858 ft | 430 kts | 84° |
| 2026-04-21 19:05 | 24.54892 | 65.08570 | 32464 ft | 427 kts | 84° |
| 2026-04-21 19:05 | 24.55138 | 65.11822 | 32073 ft | 425 kts | 84° |
| 2026-04-21 19:05 | 24.55381 | 65.15042 | 31692 ft | 422 kts | 84° |
| 2026-04-21 19:05 | 24.55624 | 65.18253 | 31315 ft | 419 kts | 84° |
| 2026-04-21 19:06 | 24.55868 | 65.21439 | 30944 ft | 417 kts | 84° |
| 2026-04-21 19:06 | 24.56118 | 65.24609 | 30580 ft | 414 kts | 84° |
| 2026-04-21 19:06 | 24.56363 | 65.27746 | 30221 ft | 411 kts | 84° |
| 2026-04-21 19:06 | 24.56604 | 65.30843 | 29873 ft | 409 kts | 84° |
| 2026-04-21 19:07 | 24.56843 | 65.33948 | 29527 ft | 406 kts | 84° |
| 2026-04-21 19:07 | 24.57078 | 65.37027 | 29184 ft | 403 kts | 84° |
| 2026-04-21 19:07 | 24.57311 | 65.40081 | 28841 ft | 400 kts | 84° |
| 2026-04-21 19:07 | 24.57543 | 65.43133 | 28497 ft | 397 kts | 84° |
| 2026-04-21 19:08 | 24.57770 | 65.46143 | 28158 ft | 394 kts | 84° |
| 2026-04-21 19:08 | 24.57997 | 65.49155 | 27706 ft | 395 kts | 84° |
| 2026-04-21 19:08 | 24.58219 | 65.52120 | 27345 ft | 393 kts | 84° |
| 2026-04-21 19:08 | 24.58443 | 65.55116 | 26993 ft | 390 kts | 84° |
| 2026-04-21 19:09 | 24.58664 | 65.58084 | 26663 ft | 387 kts | 84° |
| 2026-04-21 19:09 | 24.58882 | 65.61021 | 26340 ft | 384 kts | 84° |
| 2026-04-21 19:09 | 24.59099 | 65.63947 | 26015 ft | 382 kts | 84° |
| 2026-04-21 19:09 | 24.59311 | 65.66806 | 25701 ft | 379 kts | 84° |
| 2026-04-21 19:10 | 24.59523 | 65.69686 | 25384 ft | 376 kts | 84° |
| 2026-04-21 19:10 | 24.59732 | 65.72537 | 25069 ft | 373 kts | 84° |
| 2026-04-21 19:10 | 24.59940 | 65.75376 | 24755 ft | 370 kts | 84° |
| 2026-04-21 19:10 | 24.60147 | 65.78201 | 24445 ft | 368 kts | 84° |
| 2026-04-21 19:11 | 24.60350 | 65.80986 | 24148 ft | 365 kts | 84° |
| 2026-04-21 19:11 | 24.60549 | 65.83720 | 23854 ft | 362 kts | 84° |
| 2026-04-21 19:11 | 24.60751 | 65.86510 | 23557 ft | 368 kts | 85° |
| 2026-04-21 19:11 | 24.60956 | 65.89346 | 23245 ft | 374 kts | 85° |
| 2026-04-21 19:12 | 24.61164 | 65.92220 | 22933 ft | 378 kts | 85° |
| 2026-04-21 19:12 | 24.61368 | 65.95060 | 22638 ft | 375 kts | 85° |
| 2026-04-21 19:12 | 24.61574 | 65.97925 | 22318 ft | 373 kts | 85° |
| 2026-04-21 19:12 | 24.61775 | 66.00747 | 22023 ft | 369 kts | 85° |
| 2026-04-21 19:13 | 24.61976 | 66.03559 | 21728 ft | 365 kts | 85° |
| 2026-04-21 19:13 | 24.62174 | 66.06332 | 21442 ft | 362 kts | 85° |
| 2026-04-21 19:13 | 24.62366 | 66.09042 | 21156 ft | 358 kts | 85° |
| 2026-04-21 19:13 | 24.62559 | 66.11767 | 20873 ft | 355 kts | 85° |
| 2026-04-21 19:14 | 24.62749 | 66.14460 | 20583 ft | 352 kts | 85° |
| 2026-04-21 19:14 | 24.62938 | 66.17132 | 20296 ft | 348 kts | 85° |
| 2026-04-21 19:14 | 24.63122 | 66.19755 | 19998 ft | 346 kts | 85° |
| 2026-04-21 19:14 | 24.63312 | 66.22380 | 19710 ft | 343 kts | 85° |
| 2026-04-21 19:15 | 24.63500 | 66.24991 | 19400 ft | 341 kts | 85° |
| 2026-04-21 19:15 | 24.63685 | 66.27596 | 19101 ft | 339 kts | 85° |
| 2026-04-21 19:15 | 24.63866 | 66.30171 | 18790 ft | 337 kts | 85° |
| 2026-04-21 19:15 | 24.64042 | 66.32702 | 18478 ft | 336 kts | 86° |
| 2026-04-21 19:16 | 24.64218 | 66.35266 | 18158 ft | 334 kts | 86° |
| 2026-04-21 19:16 | 24.64393 | 66.37816 | 17835 ft | 333 kts | 86° |
| 2026-04-21 19:16 | 24.64566 | 66.40355 | 17506 ft | 332 kts | 86° |
| 2026-04-21 19:16 | 24.64738 | 66.42887 | 17174 ft | 331 kts | 86° |
| 2026-04-21 19:17 | 24.65076 | 66.47887 | 16512 ft | 329 kts | 86° |
| 2026-04-21 19:17 | 24.65245 | 66.50394 | 16179 ft | 328 kts | 86° |
| 2026-04-21 19:17 | 24.65415 | 66.52897 | 15848 ft | 327 kts | 86° |
| 2026-04-21 19:18 | 24.65582 | 66.55384 | 15519 ft | 326 kts | 86° |
| 2026-04-21 19:18 | 24.65751 | 66.57868 | 15190 ft | 325 kts | 86° |
| 2026-04-21 19:18 | 24.65919 | 66.60343 | 14863 ft | 323 kts | 86° |
| 2026-04-21 19:18 | 24.66084 | 66.62801 | 14537 ft | 322 kts | 86° |
| 2026-04-21 19:19 | 24.66248 | 66.65254 | 14211 ft | 320 kts | 86° |
| 2026-04-21 19:19 | 24.66409 | 66.67666 | 13892 ft | 319 kts | 86° |
| 2026-04-21 19:19 | 24.66573 | 66.70091 | 13569 ft | 318 kts | 86° |
| 2026-04-21 19:19 | 24.66744 | 66.72514 | 13249 ft | 316 kts | 86° |
| 2026-04-21 19:20 | 24.66909 | 66.74924 | 12929 ft | 315 kts | 86° |
| 2026-04-21 19:20 | 24.67071 | 66.77318 | 12612 ft | 313 kts | 86° |
| 2026-04-21 19:20 | 24.67228 | 66.79676 | 12300 ft | 311 kts | 86° |
| 2026-04-21 19:20 | 24.67386 | 66.82045 | 11988 ft | 309 kts | 86° |
| 2026-04-21 19:21 | 24.67541 | 66.84398 | 11674 ft | 307 kts | 86° |
| 2026-04-21 19:21 | 24.67694 | 66.86740 | 11363 ft | 305 kts | 86° |
| 2026-04-21 19:21 | 24.67845 | 66.89059 | 11055 ft | 303 kts | 86° |
| 2026-04-21 19:21 | 24.67993 | 66.91344 | 10748 ft | 301 kts | 86° |
| 2026-04-21 19:22 | 24.68141 | 66.93637 | 10439 ft | 299 kts | 86° |
| 2026-04-21 19:22 | 24.68289 | 66.95922 | 10127 ft | 298 kts | 85° |
| 2026-04-21 19:22 | 24.68436 | 66.98193 | 9858 ft | 294 kts | 85° |
| 2026-04-21 19:22 | 24.68581 | 67.00429 | 9537 ft | 293 kts | 85° |
| 2026-04-21 19:23 | 24.68727 | 67.02631 | 9190 ft | 293 kts | 83° |
| 2026-04-21 19:23 | 24.69164 | 67.04805 | 8948 ft | 287 kts | 70° |
| 2026-04-21 19:23 | 24.69941 | 67.06793 | 8770 ft | 281 kts | 63° |
| 2026-04-21 19:23 | 24.70889 | 67.08683 | 8338 ft | 284 kts | 59° |
| 2026-04-21 19:24 | 24.71909 | 67.10546 | 8010 ft | 283 kts | 57° |
| 2026-04-21 19:24 | 24.72939 | 67.12404 | 7683 ft | 282 kts | 57° |
| 2026-04-21 19:24 | 24.73943 | 67.14229 | 7365 ft | 282 kts | 57° |
| 2026-04-21 19:24 | 24.74954 | 67.16074 | 7042 ft | 281 kts | 58° |
| 2026-04-21 19:25 | 24.75962 | 67.17924 | 6717 ft | 280 kts | 58° |
| 2026-04-21 19:25 | 24.76966 | 67.19773 | 6393 ft | 280 kts | 58° |
| 2026-04-21 19:25 | 24.77951 | 67.21590 | 6073 ft | 279 kts | 58° |
| 2026-04-21 19:25 | 24.78946 | 67.23430 | 5752 ft | 278 kts | 58° |
| 2026-04-21 19:26 | 24.79931 | 67.25256 | 5433 ft | 278 kts | 58° |
| 2026-04-21 19:26 | 24.80921 | 67.27093 | 5110 ft | 277 kts | 58° |
| 2026-04-21 19:26 | 24.81902 | 67.28916 | 4792 ft | 276 kts | 59° |
| 2026-04-21 19:26 | 24.82879 | 67.30732 | 4474 ft | 275 kts | 58° |
| 2026-04-21 19:27 | 24.83833 | 67.32506 | 4335 ft | 267 kts | 58° |
| 2026-04-21 19:27 | 24.84770 | 67.34248 | 4172 ft | 261 kts | 58° |
| 2026-04-21 19:27 | 24.85682 | 67.35946 | 4023 ft | 254 kts | 58° |
| 2026-04-21 19:27 | 24.86554 | 67.37566 | 3962 ft | 238 kts | 58° |
| 2026-04-21 19:28 | 24.87548 | 67.38927 | 3815 ft | 223 kts | 39° |
| 2026-04-21 19:28 | 24.88861 | 67.39644 | 3696 ft | 201 kts | 9° |
| 2026-04-21 19:28 | 24.90179 | 67.39559 | 3557 ft | 182 kts | 346° |
| 2026-04-21 19:28 | 24.91382 | 67.39183 | 3335 ft | 177 kts | 340° |
| 2026-04-21 19:29 | 24.92559 | 67.38783 | 2964 ft | 177 kts | 340° |
| 2026-04-21 19:29 | 24.93730 | 67.38388 | 2557 ft | 178 kts | 339° |
| 2026-04-21 19:29 | 24.94731 | 67.37653 | 2169 ft | 176 kts | 307° |
| 2026-04-21 19:29 | 24.95082 | 67.36396 | 2122 ft | 172 kts | 281° |
| 2026-04-21 19:30 | 24.95066 | 67.35098 | 2090 ft | 167 kts | 269° |
| 2026-04-21 19:30 | 24.95024 | 67.34717 | 2070 ft | 165 kts | 267° |
| 2026-04-21 19:30 | 24.94953 | 67.34220 | 2042 ft | 164 kts | 265° |
| 2026-04-21 19:30 | 24.94754 | 67.33013 | 1985 ft | 159 kts | 264° |
| 2026-04-21 19:31 | 24.94547 | 67.31823 | 1973 ft | 158 kts | 263° |
| 2026-04-21 19:31 | 24.94293 | 67.30643 | 2027 ft | 156 kts | 261° |
| 2026-04-21 19:31 | 24.94016 | 67.29502 | 2013 ft | 150 kts | 259° |
| 2026-04-21 19:31 | 24.93739 | 67.28407 | 2060 ft | 152 kts | 259° |
| 2026-04-21 19:32 | 24.93448 | 67.27276 | 1918 ft | 153 kts | 259° |
| 2026-04-21 19:32 | 24.93163 | 67.26176 | 1706 ft | 149 kts | 258° |
| 2026-04-21 19:32 | 24.92881 | 67.25089 | 1496 ft | 146 kts | 257° |
| 2026-04-21 19:32 | 24.92603 | 67.24021 | 1303 ft | 144 kts | 256° |
| 2026-04-21 19:33 | 24.92417 | 67.23307 | 1177 ft | 143 kts | 256° |
| 2026-04-21 19:33 | 24.92052 | 67.21906 | 923 ft | 143 kts | 255° |
| 2026-04-21 19:33 | 24.91777 | 67.20853 | 735 ft | 142 kts | 255° |
| 2026-04-21 19:33 | 24.91507 | 67.19815 | 549 ft | 143 kts | 254° |
| 2026-04-21 19:34 | 24.91231 | 67.18753 | 367 ft | 143 kts | 254° |
| 2026-04-21 19:34 | 24.90960 | 67.17713 | 171 ft | 142 kts | 255° |
| 2026-04-21 19:34 | 24.90696 | 67.16699 | 108 ft | 124 kts | 254° |
| 2026-04-21 19:34 | 24.90523 | 67.16034 | 108 ft | 50 kts | 254° |
| 2026-04-21 19:35 | 24.90445 | 67.15734 | 108 ft | 37 kts | 254° |
| 2026-04-21 19:35 | 24.90312 | 67.15207 | 108 ft | 31 kts | 254° |
| 2026-04-21 19:35 | 24.90256 | 67.15062 | 108 ft | 15 kts | 230° |
| 2026-04-21 19:36 | 24.90196 | 67.14994 | 108 ft | 9 kts | 224° |
| 2026-04-21 19:36 | 24.90162 | 67.14958 | 108 ft | 5 kts | 225° |
| 2026-04-21 19:36 | 24.90138 | 67.14931 | 108 ft | 5 kts | 225° |
| 2026-04-21 19:36 | 24.90106 | 67.14904 | 108 ft | 6 kts | 193° |
| 2026-04-21 19:37 | 24.90057 | 67.14913 | 108 ft | 8 kts | 163° |
| 2026-04-21 19:37 | 24.90037 | 67.14954 | 108 ft | 8 kts | 63° |
| 2026-04-21 19:37 | 24.90062 | 67.15015 | 108 ft | 10 kts | 70° |
| 2026-04-21 19:37 | 24.90084 | 67.15091 | 108 ft | 11 kts | 73° |
| 2026-04-21 19:38 | 24.90106 | 67.15181 | 108 ft | 13 kts | 76° |
| 2026-04-21 19:38 | 24.90129 | 67.15280 | 108 ft | 14 kts | 76° |
| 2026-04-21 19:38 | 24.90148 | 67.15354 | 108 ft | 15 kts | 73° |
| 2026-04-21 19:38 | 24.90189 | 67.15512 | 108 ft | 17 kts | 74° |
| 2026-04-21 19:39 | 24.90224 | 67.15643 | 108 ft | 18 kts | 74° |
| 2026-04-21 19:39 | 24.90260 | 67.15782 | 108 ft | 19 kts | 74° |
| 2026-04-21 19:39 | 24.90299 | 67.15929 | 108 ft | 20 kts | 74° |
| 2026-04-21 19:39 | 24.90337 | 67.16082 | 108 ft | 21 kts | 75° |
| 2026-04-21 19:40 | 24.90378 | 67.16243 | 108 ft | 22 kts | 75° |
| 2026-04-21 19:40 | 24.90413 | 67.16379 | 108 ft | 16 kts | 74° |
| 2026-04-21 19:40 | 24.90444 | 67.16500 | 108 ft | 17 kts | 74° |
| 2026-04-21 19:40 | 24.90473 | 67.16613 | 108 ft | 11 kts | 74° |
| 2026-04-21 19:41 | 24.90493 | 67.16701 | 108 ft | 12 kts | 97° |
| 2026-04-21 19:41 | 24.90465 | 67.16722 | 108 ft | 6 kts | 175° |
| 2026-04-21 19:41 | 24.90447 | 67.16723 | 108 ft | 0 kts | 175° |
| 2026-04-21 19:41 | 24.90446 | 67.16723 | 108 ft | 1 kts | 175° |
| 2026-04-21 19:42 | 24.90420 | 67.16726 | 108 ft | 6 kts | 175° |
| 2026-04-21 19:42 | 24.90365 | 67.16742 | 108 ft | 10 kts | 162° |
| 2026-04-21 19:42 | 24.90293 | 67.16764 | 108 ft | 12 kts | 168° |
| 2026-04-21 19:42 | 24.90238 | 67.16787 | 108 ft | 7 kts | 130° |
| 2026-04-21 19:43 | 24.90232 | 67.16818 | 108 ft | 8 kts | 75° |
| 2026-04-21 19:43 | 24.90241 | 67.16864 | 108 ft | 4 kts | 75° |
| 2026-04-21 19:43 | 24.90242 | 67.16868 | 108 ft | 4 kts | 75° |
| 2026-04-21 19:43 | 24.90244 | 67.16877 | 108 ft | 0 kts | 77° |